Time;durP1;ratioP1;P1;durP2;ratioP2;P2;SDS_P1;SDS_P2;PMS_P1;PMS_P2;Temp;Humidity;BMP_temperature;BMP_pressure;BME280_temperature;BME280_humidity;BME280_pressure;Samples;Min_cycle;Max_cycle;Signal;HPM_P1;HPM_P2
2023/09/13 00:00:19;;;;;;;0.00;0.00;;;;;;;;;;1743984;28;20460;-85
2023/09/13 00:01:10;;;;;;;0.00;0.00;;;;;;;;;;1747337;28;20486;-85
2023/09/13 00:02:02;;;;;;;0.00;0.00;;;;;;;;;;1746256;28;20506;-84
2023/09/13 00:02:53;;;;;;;0.00;0.00;;;;;;;;;;1744452;28;20460;-84
2023/09/13 00:03:44;;;;;;;0.00;0.00;;;;;;;;;;1741210;28;20534;-84
2023/09/13 00:04:36;;;;;;;0.00;0.00;;;;;;;;;;1740657;28;20526;-85
2023/09/13 00:05:27;;;;;;;0.00;0.00;;;;;;;;;;1741548;28;20461;-84
2023/09/13 00:06:19;;;;;;;0.00;0.00;;;;;;;;;;1747415;28;21001;-84
2023/09/13 00:07:10;;;;;;;0.00;0.00;;;;;;;;;;1742827;28;20465;-84
2023/09/13 00:08:01;;;;;;;0.00;0.00;;;;;;;;;;1747000;28;20476;-83
2023/09/13 00:08:53;;;;;;;0.00;0.00;;;;;;;;;;1742808;28;20539;-84
2023/09/13 00:09:46;;;;;;;0.00;0.00;;;;;;;;;;1736524;28;20454;-84
2023/09/13 00:10:37;;;;;;;0.00;0.00;;;;;;;;;;1742368;28;20480;-84
2023/09/13 00:11:29;;;;;;;0.00;0.00;;;;;;;;;;1742868;28;20516;-84
2023/09/13 00:12:20;;;;;;;0.00;0.00;;;;;;;;;;1743203;28;20471;-84
2023/09/13 00:13:11;;;;;;;0.00;0.00;;;;;;;;;;1742726;28;20457;-84
2023/09/13 00:14:03;;;;;;;0.00;0.00;;;;;;;;;;1742169;28;20465;-84
2023/09/13 00:14:54;;;;;;;0.00;0.00;;;;;;;;;;1736838;28;20525;-84
2023/09/13 00:15:45;;;;;;;0.00;0.00;;;;;;;;;;1742695;28;20496;-84
2023/09/13 00:16:37;;;;;;;0.00;0.00;;;;;;;;;;1743297;28;20461;-84
2023/09/13 00:17:28;;;;;;;0.00;0.00;;;;;;;;;;1742906;28;20465;-84
2023/09/13 00:18:20;;;;;;;0.00;0.00;;;;;;;;;;1742749;28;20488;-84
2023/09/13 00:19:12;;;;;;;0.00;0.00;;;;;;;;;;1742532;28;20500;-84
2023/09/13 00:20:04;;;;;;;0.00;0.00;;;;;;;;;;1743823;28;20468;-84
2023/09/13 00:20:56;;;;;;;0.00;0.00;;;;;;;;;;1742429;28;20481;-84
2023/09/13 00:21:48;;;;;;;0.00;0.00;;;;;;;;;;1742915;28;20469;-84
2023/09/13 00:22:40;;;;;;;0.00;0.00;;;;;;;;;;1743049;28;20473;-84
2023/09/13 00:23:31;;;;;;;0.00;0.00;;;;;;;;;;1745338;28;20453;-84
2023/09/13 00:24:22;;;;;;;0.00;0.00;;;;;;;;;;1743705;28;20464;-84
2023/09/13 00:25:16;;;;;;;0.00;0.00;;;;;;;;;;1741305;28;20461;-85
2023/09/13 00:26:07;;;;;;;0.00;0.00;;;;;;;;;;1741643;28;20954;-85
2023/09/13 00:26:58;;;;;;;0.00;0.00;;;;;;;;;;1734767;28;20443;-85
2023/09/13 00:27:50;;;;;;;0.00;0.00;;;;;;;;;;1737086;28;20476;-84
2023/09/13 00:28:41;;;;;;;0.00;0.00;;;;;;;;;;1734590;28;20458;-84
2023/09/13 00:29:33;;;;;;;0.00;0.00;;;;;;;;;;1736483;28;20465;-84
2023/09/13 00:30:25;;;;;;;0.00;0.00;;;;;;;;;;1735522;28;20944;-85
2023/09/13 00:31:16;;;;;;;0.00;0.00;;;;;;;;;;1734557;28;20805;-84
2023/09/13 00:32:07;;;;;;;0.00;0.00;;;;;;;;;;1733304;28;20615;-84
2023/09/13 00:32:59;;;;;;;0.00;0.00;;;;;;;;;;1738134;28;20456;-84
2023/09/13 00:33:51;;;;;;;0.00;0.00;;;;;;;;;;1729413;28;20493;-84
2023/09/13 00:34:42;;;;;;;0.00;0.00;;;;;;;;;;1733674;28;20951;-84
2023/09/13 00:35:34;;;;;;;0.00;0.00;;;;;;;;;;1733329;28;20513;-83
2023/09/13 00:36:25;;;;;;;0.00;0.00;;;;;;;;;;1736789;28;20554;-83
2023/09/13 00:37:17;;;;;;;0.00;0.00;;;;;;;;;;1734815;28;20529;-84
2023/09/13 00:38:08;;;;;;;0.00;0.00;;;;;;;;;;1739537;28;20488;-84
2023/09/13 00:38:59;;;;;;;0.00;0.00;;;;;;;;;;1737594;28;20458;-83
2023/09/13 00:39:51;;;;;;;0.00;0.00;;;;;;;;;;1735165;28;20791;-84
2023/09/13 00:40:44;;;;;;;0.00;0.00;;;;;;;;;;1732104;28;20490;-83
2023/09/13 00:41:35;;;;;;;0.00;0.00;;;;;;;;;;1733290;28;20858;-84
2023/09/13 00:42:28;;;;;;;0.00;0.00;;;;;;;;;;1733067;28;20469;-84
2023/09/13 00:43:19;;;;;;;0.00;0.00;;;;;;;;;;1734206;28;20809;-83
2023/09/13 00:44:11;;;;;;;0.00;0.00;;;;;;;;;;1733889;28;20458;-84
2023/09/13 00:45:05;;;;;;;0.00;0.00;;;;;;;;;;1739605;28;20497;-82
2023/09/13 00:45:57;;;;;;;0.00;0.00;;;;;;;;;;1732184;28;21320;-83
2023/09/13 00:46:49;;;;;;;0.00;0.00;;;;;;;;;;1733411;28;20466;-83
2023/09/13 00:47:40;;;;;;;0.00;0.00;;;;;;;;;;1732511;28;20505;-83
2023/09/13 00:48:35;;;;;;;0.00;0.00;;;;;;;;;;1733126;28;20470;-83
2023/09/13 00:49:27;;;;;;;0.00;0.00;;;;;;;;;;1732782;28;20466;-84
2023/09/13 00:50:18;;;;;;;0.00;0.00;;;;;;;;;;1731773;28;20497;-83
2023/09/13 00:51:10;;;;;;;0.00;0.00;;;;;;;;;;1734381;28;20489;-83
2023/09/13 00:52:02;;;;;;;0.00;0.00;;;;;;;;;;1732550;28;20493;-83
2023/09/13 00:52:53;;;;;;;0.00;0.00;;;;;;;;;;1736096;28;20457;-84
2023/09/13 00:53:45;;;;;;;0.00;0.00;;;;;;;;;;1733183;28;20571;-82
2023/09/13 00:54:37;;;;;;;0.00;0.00;;;;;;;;;;1736124;28;20562;-82
2023/09/13 00:55:28;;;;;;;0.00;0.00;;;;;;;;;;1734700;28;20729;-82
2023/09/13 00:56:21;;;;;;;0.00;0.00;;;;;;;;;;1732585;28;20486;-82
2023/09/13 00:57:12;;;;;;;0.00;0.00;;;;;;;;;;1732603;28;20497;-82
2023/09/13 00:58:05;;;;;;;0.00;0.00;;;;;;;;;;1732795;28;20796;-81
2023/09/13 00:58:57;;;;;;;0.00;0.00;;;;;;;;;;1732485;28;20493;-83
2023/09/13 00:59:48;;;;;;;0.00;0.00;;;;;;;;;;1738299;28;20489;-82
2023/09/13 01:00:40;;;;;;;0.00;0.00;;;;;;;;;;1732322;28;20486;-83
2023/09/13 01:01:34;;;;;;;0.00;0.00;;;;;;;;;;1732721;28;20466;-82
2023/09/13 01:02:25;;;;;;;0.00;0.00;;;;;;;;;;1732210;28;20837;-82
2023/09/13 01:03:17;;;;;;;0.00;0.00;;;;;;;;;;1732613;28;20461;-82
2023/09/13 01:04:08;;;;;;;0.00;0.00;;;;;;;;;;1732240;28;20517;-82
2023/09/13 01:05:00;;;;;;;0.00;0.00;;;;;;;;;;1732755;28;20464;-82
2023/09/13 01:05:54;;;;;;;0.00;0.00;;;;;;;;;;1730397;28;20469;-83
2023/09/13 01:06:45;;;;;;;0.00;0.00;;;;;;;;;;1732755;28;20474;-82
2023/09/13 01:07:37;;;;;;;0.00;0.00;;;;;;;;;;1733610;28;20472;-82
2023/09/13 01:08:29;;;;;;;0.00;0.00;;;;;;;;;;1734073;28;20512;-82
2023/09/13 01:09:21;;;;;;;0.00;0.00;;;;;;;;;;1734962;28;20458;-83
2023/09/13 01:10:12;;;;;;;0.00;0.00;;;;;;;;;;1739074;28;21130;-83
2023/09/13 01:11:03;;;;;;;0.00;0.00;;;;;;;;;;1734819;28;20469;-83
2023/09/13 01:11:57;;;;;;;0.00;0.00;;;;;;;;;;1734366;28;21076;-83
2023/09/13 01:12:48;;;;;;;0.00;0.00;;;;;;;;;;1736294;28;20907;-84
2023/09/13 01:13:39;;;;;;;0.00;0.00;;;;;;;;;;1735398;28;20473;-84
2023/09/13 01:14:31;;;;;;;0.00;0.00;;;;;;;;;;1734238;28;20476;-84
2023/09/13 01:15:23;;;;;;;0.00;0.00;;;;;;;;;;1733529;28;20481;-82
2023/09/13 01:16:19;;;;;;;0.00;0.00;;;;;;;;;;1737445;28;20461;-83
2023/09/13 01:17:16;;;;;;;0.00;0.00;;;;;;;;;;1735536;28;20462;-83
2023/09/13 01:18:10;;;;;;;0.00;0.00;;;;;;;;;;1740432;28;20811;-83
2023/09/13 01:19:06;;;;;;;0.00;0.00;;;;;;;;;;1735284;28;20466;-84
2023/09/13 01:20:05;;;;;;;0.00;0.00;;;;;;;;;;1742541;28;20540;-84
2023/09/13 01:21:07;;;;;;;0.00;0.00;;;;;;;;;;1733351;28;20582;-85
2023/09/13 01:22:06;;;;;;;0.00;0.00;;;;;;;;;;1733435;28;20458;-85
2023/09/13 01:23:07;;;;;;;0.00;0.00;;;;;;;;;;1738394;28;20783;-85
2023/09/13 01:24:23;;;;;;;0.00;0.00;;;;;;;;;;1731328;28;21371;-84
2023/09/13 01:25:23;;;;;;;0.00;0.00;;;;;;;;;;1728219;28;20554;-84
2023/09/13 01:26:21;;;;;;;0.00;0.00;;;;;;;;;;1735560;28;20481;-84
2023/09/13 01:27:22;;;;;;;0.00;0.00;;;;;;;;;;1733691;28;20501;-85
2023/09/13 01:28:15;;;;;;;0.00;0.00;;;;;;;;;;1738730;28;20518;-85
2023/09/13 01:29:09;;;;;;;0.00;0.00;;;;;;;;;;1733854;28;20517;-85
2023/09/13 01:30:04;;;;;;;0.00;0.00;;;;;;;;;;1734475;28;20470;-84
2023/09/13 01:30:56;;;;;;;0.00;0.00;;;;;;;;;;1734003;28;20525;-83
2023/09/13 01:31:48;;;;;;;0.00;0.00;;;;;;;;;;1735922;28;20494;-83
2023/09/13 01:32:39;;;;;;;0.00;0.00;;;;;;;;;;1735772;28;20462;-83
2023/09/13 01:33:30;;;;;;;0.00;0.00;;;;;;;;;;1735681;28;20804;-84
2023/09/13 01:34:22;;;;;;;0.00;0.00;;;;;;;;;;1735408;28;20536;-83
2023/09/13 01:35:13;;;;;;;0.00;0.00;;;;;;;;;;1736646;28;20492;-85
2023/09/13 01:36:06;;;;;;;0.00;0.00;;;;;;;;;;1735625;28;20964;-83
2023/09/13 01:36:57;;;;;;;0.00;0.00;;;;;;;;;;1734215;28;21025;-82
2023/09/13 01:37:48;;;;;;;0.00;0.00;;;;;;;;;;1736151;28;20549;-81
2023/09/13 01:38:40;;;;;;;0.00;0.00;;;;;;;;;;1735035;28;20828;-82
2023/09/13 01:39:31;;;;;;;0.00;0.00;;;;;;;;;;1736766;28;20492;-82
2023/09/13 01:40:24;;;;;;;0.00;0.00;;;;;;;;;;1735961;28;20454;-83
2023/09/13 01:41:18;;;;;;;0.00;0.00;;;;;;;;;;1730965;28;20875;-83
2023/09/13 01:42:12;;;;;;;0.00;0.00;;;;;;;;;;1733534;28;20863;-82
2023/09/13 01:43:04;;;;;;;0.00;0.00;;;;;;;;;;1734039;28;20604;-83
2023/09/13 01:43:57;;;;;;;0.00;0.00;;;;;;;;;;1735795;28;20872;-83
2023/09/13 01:44:50;;;;;;;0.00;0.00;;;;;;;;;;1734086;28;20541;-83
2023/09/13 01:45:42;;;;;;;0.00;0.00;;;;;;;;;;1732487;28;20485;-83
2023/09/13 01:46:36;;;;;;;0.00;0.00;;;;;;;;;;1735540;28;20462;-83
2023/09/13 01:47:28;;;;;;;0.00;0.00;;;;;;;;;;1733683;28;20963;-82
2023/09/13 01:48:20;;;;;;;0.00;0.00;;;;;;;;;;1734049;28;20462;-83
2023/09/13 01:49:13;;;;;;;0.00;0.00;;;;;;;;;;1733556;28;20568;-83
2023/09/13 01:50:05;;;;;;;0.00;0.00;;;;;;;;;;1734675;28;20474;-83
2023/09/13 01:50:56;;;;;;;0.00;0.00;;;;;;;;;;1732513;28;20478;-83
2023/09/13 01:51:48;;;;;;;0.00;0.00;;;;;;;;;;1734164;28;20806;-80
2023/09/13 01:52:40;;;;;;;0.00;0.00;;;;;;;;;;1734653;28;20463;-81
2023/09/13 01:53:31;;;;;;;0.00;0.00;;;;;;;;;;1735478;28;20466;-82
2023/09/13 01:54:23;;;;;;;0.00;0.00;;;;;;;;;;1736645;28;20699;-82
2023/09/13 01:55:14;;;;;;;0.00;0.00;;;;;;;;;;1739567;28;20457;-82
2023/09/13 01:56:05;;;;;;;0.00;0.00;;;;;;;;;;1736219;28;20468;-82
2023/09/13 01:56:57;;;;;;;0.00;0.00;;;;;;;;;;1735842;28;20462;-81
2023/09/13 01:57:48;;;;;;;0.00;0.00;;;;;;;;;;1735783;28;20516;-81
2023/09/13 01:58:40;;;;;;;0.00;0.00;;;;;;;;;;1735861;28;20928;-80
2023/09/13 01:59:33;;;;;;;0.00;0.00;;;;;;;;;;1735411;28;20502;-80
2023/09/13 02:00:26;;;;;;;0.00;0.00;;;;;;;;;;1735996;28;20454;-79
2023/09/13 02:01:19;;;;;;;0.00;0.00;;;;;;;;;;1744515;28;20495;-79
2023/09/13 02:02:10;;;;;;;0.00;0.00;;;;;;;;;;1739595;28;20489;-80
2023/09/13 02:03:01;;;;;;;0.00;0.00;;;;;;;;;;1746273;28;20577;-79
2023/09/13 02:03:53;;;;;;;0.00;0.00;;;;;;;;;;1740174;28;20203;-80
2023/09/13 02:04:44;;;;;;;0.00;0.00;;;;;;;;;;1745077;28;20245;-80
2023/09/13 02:05:35;;;;;;;0.00;0.00;;;;;;;;;;1739663;28;20522;-80
2023/09/13 02:06:27;;;;;;;0.00;0.00;;;;;;;;;;1740528;28;20208;-80
2023/09/13 02:07:20;;;;;;;0.00;0.00;;;;;;;;;;1739638;28;20242;-80
2023/09/13 02:08:11;;;;;;;0.00;0.00;;;;;;;;;;1743594;28;20207;-80
2023/09/13 02:09:03;;;;;;;0.00;0.00;;;;;;;;;;1738710;28;20199;-80
2023/09/13 02:09:54;;;;;;;0.00;0.00;;;;;;;;;;1738487;28;20535;-80
2023/09/13 02:10:47;;;;;;;0.00;0.00;;;;;;;;;;1738509;28;20474;-80
2023/09/13 02:11:39;;;;;;;0.00;0.00;;;;;;;;;;1739746;28;20466;-80
2023/09/13 02:12:30;;;;;;;0.00;0.00;;;;;;;;;;1738801;28;20660;-80
2023/09/13 02:13:21;;;;;;;0.00;0.00;;;;;;;;;;1745078;28;20203;-80
2023/09/13 02:14:13;;;;;;;0.00;0.00;;;;;;;;;;1743533;28;20218;-80
2023/09/13 02:15:05;;;;;;;0.00;0.00;;;;;;;;;;1742445;28;20494;-80
2023/09/13 02:15:57;;;;;;;0.00;0.00;;;;;;;;;;1737254;28;20322;-80
2023/09/13 02:16:49;;;;;;;0.00;0.00;;;;;;;;;;1735275;28;20294;-82
2023/09/13 02:17:41;;;;;;;0.00;0.00;;;;;;;;;;1735633;28;20242;-82
2023/09/13 02:18:32;;;;;;;0.00;0.00;;;;;;;;;;1734812;28;20832;-82
2023/09/13 02:19:24;;;;;;;0.00;0.00;;;;;;;;;;1739379;28;20469;-81
2023/09/13 02:20:15;;;;;;;0.00;0.00;;;;;;;;;;1743631;28;20465;-81
2023/09/13 02:21:06;;;;;;;0.00;0.00;;;;;;;;;;1744243;28;20456;-81
2023/09/13 02:21:58;;;;;;;0.00;0.00;;;;;;;;;;1738222;28;20458;-81
2023/09/13 02:22:50;;;;;;;0.00;0.00;;;;;;;;;;1741227;28;20486;-81
2023/09/13 02:23:42;;;;;;;0.00;0.00;;;;;;;;;;1733112;28;20208;-81
2023/09/13 02:24:33;;;;;;;0.00;0.00;;;;;;;;;;1741119;28;20465;-81
2023/09/13 02:25:25;;;;;;;0.00;0.00;;;;;;;;;;1740061;28;20501;-80
2023/09/13 02:26:19;;;;;;;0.00;0.00;;;;;;;;;;1738297;28;20492;-80
2023/09/13 02:27:12;;;;;;;0.00;0.00;;;;;;;;;;1736981;28;20206;-80
2023/09/13 02:28:03;;;;;;;0.00;0.00;;;;;;;;;;1740016;28;20238;-80
2023/09/13 02:28:56;;;;;;;0.00;0.00;;;;;;;;;;1740409;28;20843;-80
2023/09/13 02:29:47;;;;;;;0.00;0.00;;;;;;;;;;1745422;28;20462;-81
2023/09/13 02:30:38;;;;;;;0.00;0.00;;;;;;;;;;1743970;28;20557;-81
2023/09/13 02:31:31;;;;;;;0.00;0.00;;;;;;;;;;1741432;28;20457;-81
2023/09/13 02:32:22;;;;;;;0.00;0.00;;;;;;;;;;1740827;28;20494;-81
2023/09/13 02:33:13;;;;;;;0.00;0.00;;;;;;;;;;1740027;28;20466;-81
2023/09/13 02:34:05;;;;;;;0.00;0.00;;;;;;;;;;1739669;28;20557;-82
2023/09/13 02:34:56;;;;;;;0.00;0.00;;;;;;;;;;1739245;28;20947;-82
2023/09/13 02:35:49;;;;;;;0.00;0.00;;;;;;;;;;1738967;28;20466;-81
2023/09/13 02:36:40;;;;;;;0.00;0.00;;;;;;;;;;1740248;28;20486;-81
2023/09/13 02:37:31;;;;;;;0.00;0.00;;;;;;;;;;1739515;28;20469;-81
2023/09/13 02:38:23;;;;;;;0.00;0.00;;;;;;;;;;1739871;28;20493;-81
2023/09/13 02:39:29;;;;;;;0.00;0.00;;;;;;;;;;1739603;28;20465;-81
2023/09/13 02:40:21;;;;;;;0.00;0.00;;;;;;;;;;1738448;28;20438;-81
2023/09/13 02:41:12;;;;;;;0.00;0.00;;;;;;;;;;1740103;28;20458;-81
2023/09/13 02:42:04;;;;;;;0.00;0.00;;;;;;;;;;1739020;28;20524;-81
2023/09/13 02:42:56;;;;;;;0.00;0.00;;;;;;;;;;1738889;28;20462;-81
2023/09/13 02:43:47;;;;;;;0.00;0.00;;;;;;;;;;1739142;28;20473;-80
2023/09/13 02:44:38;;;;;;;0.00;0.00;;;;;;;;;;1741452;28;20454;-81
2023/09/13 02:45:30;;;;;;;0.00;0.00;;;;;;;;;;1738361;28;20466;-80
2023/09/13 02:46:21;;;;;;;0.00;0.00;;;;;;;;;;1739134;28;20948;-80
2023/09/13 02:47:13;;;;;;;0.00;0.00;;;;;;;;;;1735949;28;20479;-80
2023/09/13 02:48:06;;;;;;;0.00;0.00;;;;;;;;;;1739592;28;20465;-79
2023/09/13 02:48:57;;;;;;;0.00;0.00;;;;;;;;;;1735025;28;20584;-79
2023/09/13 02:49:48;;;;;;;0.00;0.00;;;;;;;;;;1735443;28;20462;-80
2023/09/13 02:50:41;;;;;;;0.00;0.00;;;;;;;;;;1738963;28;20474;-81
2023/09/13 02:51:32;;;;;;;0.00;0.00;;;;;;;;;;1739299;28;20458;-81
2023/09/13 02:52:27;;;;;;;0.00;0.00;;;;;;;;;;1738306;28;20482;-81
2023/09/13 02:53:19;;;;;;;0.00;0.00;;;;;;;;;;1738258;28;20451;-81
2023/09/13 02:54:10;;;;;;;0.00;0.00;;;;;;;;;;1737977;28;20470;-81
2023/09/13 02:55:05;;;;;;;0.00;0.00;;;;;;;;;;1738531;28;20872;-81
2023/09/13 02:56:03;;;;;;;0.00;0.00;;;;;;;;;;1741422;28;20507;-81
2023/09/13 02:56:55;;;;;;;0.00;0.00;;;;;;;;;;1737996;28;20214;-81
2023/09/13 02:57:47;;;;;;;0.00;0.00;;;;;;;;;;1739231;28;20454;-80
2023/09/13 02:58:38;;;;;;;0.00;0.00;;;;;;;;;;1737190;28;20535;-79
2023/09/13 02:59:29;;;;;;;0.00;0.00;;;;;;;;;;1738724;28;20777;-79
2023/09/13 03:00:21;;;;;;;0.00;0.00;;;;;;;;;;1738458;28;20461;-79
2023/09/13 03:01:12;;;;;;;0.00;0.00;;;;;;;;;;1741814;28;20477;-79
2023/09/13 03:02:03;;;;;;;0.00;0.00;;;;;;;;;;1738296;28;20485;-80
2023/09/13 03:02:57;;;;;;;0.00;0.00;;;;;;;;;;1741437;28;20534;-80
2023/09/13 03:03:49;;;;;;;0.00;0.00;;;;;;;;;;1738438;28;20465;-81
2023/09/13 03:04:40;;;;;;;0.00;0.00;;;;;;;;;;1738443;28;20250;-81
2023/09/13 03:05:32;;;;;;;0.00;0.00;;;;;;;;;;1739046;28;21421;-82
2023/09/13 03:06:23;;;;;;;0.00;0.00;;;;;;;;;;1741567;28;20214;-80
2023/09/13 03:07:14;;;;;;;0.00;0.00;;;;;;;;;;1737697;28;20454;-80
2023/09/13 03:08:07;;;;;;;0.00;0.00;;;;;;;;;;1737187;28;20446;-80
2023/09/13 03:08:58;;;;;;;0.00;0.00;;;;;;;;;;1736722;28;20240;-80
2023/09/13 03:09:52;;;;;;;0.00;0.00;;;;;;;;;;1736694;28;20477;-81
2023/09/13 03:10:44;;;;;;;0.00;0.00;;;;;;;;;;1739760;28;20800;-81
2023/09/13 03:11:35;;;;;;;0.00;0.00;;;;;;;;;;1740291;28;20450;-80
2023/09/13 03:12:27;;;;;;;0.00;0.00;;;;;;;;;;1738430;28;20263;-80
2023/09/13 03:13:19;;;;;;;0.00;0.00;;;;;;;;;;1738450;28;20241;-81
2023/09/13 03:14:11;;;;;;;0.00;0.00;;;;;;;;;;1740221;28;20465;-81
2023/09/13 03:15:06;;;;;;;0.00;0.00;;;;;;;;;;1739792;28;20271;-81
2023/09/13 03:15:57;;;;;;;0.00;0.00;;;;;;;;;;1737929;28;20994;-81
2023/09/13 03:16:48;;;;;;;0.00;0.00;;;;;;;;;;1738200;28;20200;-80
2023/09/13 03:17:40;;;;;;;0.00;0.00;;;;;;;;;;1738568;28;20590;-81
2023/09/13 03:18:33;;;;;;;0.00;0.00;;;;;;;;;;1739414;28;20671;-81
2023/09/13 03:19:25;;;;;;;0.00;0.00;;;;;;;;;;1737868;28;20489;-80
2023/09/13 03:20:16;;;;;;;0.00;0.00;;;;;;;;;;1737693;28;20230;-80
2023/09/13 03:21:08;;;;;;;0.00;0.00;;;;;;;;;;1736944;28;20485;-81
2023/09/13 03:22:00;;;;;;;0.00;0.00;;;;;;;;;;1735067;28;20553;-81
2023/09/13 03:22:51;;;;;;;0.00;0.00;;;;;;;;;;1737811;28;20486;-81
2023/09/13 03:23:43;;;;;;;0.00;0.00;;;;;;;;;;1736594;28;20466;-81
2023/09/13 03:24:35;;;;;;;0.00;0.00;;;;;;;;;;1737224;28;20291;-81
2023/09/13 03:25:26;;;;;;;0.00;0.00;;;;;;;;;;1736576;28;20229;-81
2023/09/13 03:26:19;;;;;;;0.00;0.00;;;;;;;;;;1737362;28;20223;-81
2023/09/13 03:27:10;;;;;;;0.00;0.00;;;;;;;;;;1738824;28;20183;-81
2023/09/13 03:28:02;;;;;;;0.00;0.00;;;;;;;;;;1742081;28;20253;-82
2023/09/13 03:28:54;;;;;;;0.00;0.00;;;;;;;;;;1738733;28;20509;-82
2023/09/13 03:29:45;;;;;;;0.00;0.00;;;;;;;;;;1738489;28;20457;-82
2023/09/13 03:30:37;;;;;;;0.00;0.00;;;;;;;;;;1736243;28;20470;-81
2023/09/13 03:31:28;;;;;;;0.00;0.00;;;;;;;;;;1739910;28;20298;-82
2023/09/13 03:32:20;;;;;;;0.00;0.00;;;;;;;;;;1739285;28;20537;-82
2023/09/13 03:33:11;;;;;;;0.00;0.00;;;;;;;;;;1743057;28;20946;-82
2023/09/13 03:34:04;;;;;;;0.00;0.00;;;;;;;;;;1739101;28;20207;-82
2023/09/13 03:34:56;;;;;;;0.00;0.00;;;;;;;;;;1737323;28;20470;-82
2023/09/13 03:35:47;;;;;;;0.00;0.00;;;;;;;;;;1735410;28;20545;-82
2023/09/13 03:36:39;;;;;;;0.00;0.00;;;;;;;;;;1735815;28;20454;-82
2023/09/13 03:37:31;;;;;;;0.00;0.00;;;;;;;;;;1738541;28;20492;-83
2023/09/13 03:38:22;;;;;;;0.00;0.00;;;;;;;;;;1735707;28;20468;-83
2023/09/13 03:39:14;;;;;;;0.00;0.00;;;;;;;;;;1737662;28;21163;-83
2023/09/13 03:40:06;;;;;;;0.00;0.00;;;;;;;;;;1736362;28;20482;-83
2023/09/13 03:40:57;;;;;;;0.00;0.00;;;;;;;;;;1736270;28;20478;-82
2023/09/13 03:41:49;;;;;;;0.00;0.00;;;;;;;;;;1736971;28;20501;-82
2023/09/13 03:42:40;;;;;;;0.00;0.00;;;;;;;;;;1739367;28;20478;-82
2023/09/13 03:43:32;;;;;;;0.00;0.00;;;;;;;;;;1738690;28;20505;-82
2023/09/13 03:44:24;;;;;;;0.00;0.00;;;;;;;;;;1739428;28;20200;-82
2023/09/13 03:45:15;;;;;;;0.00;0.00;;;;;;;;;;1736808;28;21014;-83
2023/09/13 03:46:06;;;;;;;0.00;0.00;;;;;;;;;;1734393;28;20462;-83
2023/09/13 03:46:58;;;;;;;0.00;0.00;;;;;;;;;;1734115;28;20494;-82
2023/09/13 03:47:49;;;;;;;0.00;0.00;;;;;;;;;;1738066;28;20509;-83
2023/09/13 03:48:40;;;;;;;0.00;0.00;;;;;;;;;;1735229;28;20472;-83
2023/09/13 03:49:34;;;;;;;0.00;0.00;;;;;;;;;;1734518;28;20481;-82
2023/09/13 03:50:25;;;;;;;0.00;0.00;;;;;;;;;;1737445;28;20505;-84
2023/09/13 03:51:17;;;;;;;0.00;0.00;;;;;;;;;;1735869;28;20915;-84
2023/09/13 03:52:08;;;;;;;0.00;0.00;;;;;;;;;;1730732;28;20494;-84
2023/09/13 03:52:59;;;;;;;0.00;0.00;;;;;;;;;;1739299;28;20472;-84
2023/09/13 03:53:51;;;;;;;0.00;0.00;;;;;;;;;;1732544;28;20549;-84
2023/09/13 03:54:42;;;;;;;0.00;0.00;;;;;;;;;;1735019;28;20482;-84
2023/09/13 03:55:33;;;;;;;0.00;0.00;;;;;;;;;;1737912;28;20466;-84
2023/09/13 03:56:25;;;;;;;0.00;0.00;;;;;;;;;;1739884;28;20461;-83
2023/09/13 03:57:17;;;;;;;0.00;0.00;;;;;;;;;;1739539;28;20465;-84
2023/09/13 03:58:08;;;;;;;0.00;0.00;;;;;;;;;;1743643;28;20473;-84
2023/09/13 03:59:00;;;;;;;0.00;0.00;;;;;;;;;;1739878;28;20470;-85
2023/09/13 03:59:51;;;;;;;0.00;0.00;;;;;;;;;;1739734;28;20206;-85
2023/09/13 04:00:42;;;;;;;0.00;0.00;;;;;;;;;;1740720;28;20477;-85
2023/09/13 04:01:34;;;;;;;0.00;0.00;;;;;;;;;;1744719;28;20465;-85
2023/09/13 04:02:25;;;;;;;0.00;0.00;;;;;;;;;;1739744;28;20457;-84
2023/09/13 04:03:17;;;;;;;0.00;0.00;;;;;;;;;;1740110;28;20498;-84
2023/09/13 04:04:09;;;;;;;0.00;0.00;;;;;;;;;;1740791;28;20449;-84
2023/09/13 04:05:06;;;;;;;0.00;0.00;;;;;;;;;;1740065;28;20465;-84
2023/09/13 04:05:57;;;;;;;0.00;0.00;;;;;;;;;;1738145;28;20557;-84
2023/09/13 04:06:49;;;;;;;0.00;0.00;;;;;;;;;;1739715;28;20203;-85
2023/09/13 04:07:40;;;;;;;0.00;0.00;;;;;;;;;;1733201;28;20459;-84
2023/09/13 04:08:31;;;;;;;0.00;0.00;;;;;;;;;;1736886;28;20519;-84
2023/09/13 04:09:23;;;;;;;0.00;0.00;;;;;;;;;;1737493;28;20590;-84
2023/09/13 04:10:14;;;;;;;0.00;0.00;;;;;;;;;;1736938;28;20235;-84
2023/09/13 04:11:05;;;;;;;0.00;0.00;;;;;;;;;;1739003;28;20222;-84
2023/09/13 04:11:57;;;;;;;0.00;0.00;;;;;;;;;;1734774;28;20191;-84
2023/09/13 04:12:48;;;;;;;0.00;0.00;;;;;;;;;;1740132;28;20241;-84
2023/09/13 04:13:39;;;;;;;0.00;0.00;;;;;;;;;;1735542;28;20261;-84
2023/09/13 04:14:31;;;;;;;0.00;0.00;;;;;;;;;;1733917;28;20210;-84
2023/09/13 04:15:23;;;;;;;0.00;0.00;;;;;;;;;;1738193;28;20187;-85
2023/09/13 04:16:14;;;;;;;0.00;0.00;;;;;;;;;;1744903;28;20329;-84
2023/09/13 04:17:06;;;;;;;0.00;0.00;;;;;;;;;;1739301;28;20199;-84
2023/09/13 04:17:58;;;;;;;0.00;0.00;;;;;;;;;;1739268;28;20215;-83
2023/09/13 04:18:49;;;;;;;0.00;0.00;;;;;;;;;;1739216;28;20239;-84
2023/09/13 04:19:41;;;;;;;0.00;0.00;;;;;;;;;;1739875;28;20201;-84
2023/09/13 04:20:33;;;;;;;0.00;0.00;;;;;;;;;;1735209;28;20235;-84
2023/09/13 04:21:26;;;;;;;0.00;0.00;;;;;;;;;;1736087;28;20250;-83
2023/09/13 04:22:17;;;;;;;0.00;0.00;;;;;;;;;;1737426;28;20227;-83
2023/09/13 04:23:08;;;;;;;0.00;0.00;;;;;;;;;;1735405;28;20663;-83
2023/09/13 04:24:02;;;;;;;0.00;0.00;;;;;;;;;;1735393;28;20204;-83
2023/09/13 04:24:53;;;;;;;0.00;0.00;;;;;;;;;;1735145;28;20214;-84
2023/09/13 04:25:44;;;;;;;0.00;0.00;;;;;;;;;;1739135;28;20622;-84
2023/09/13 04:26:36;;;;;;;0.00;0.00;;;;;;;;;;1736242;28;20243;-84
2023/09/13 04:27:28;;;;;;;0.00;0.00;;;;;;;;;;1739438;28;20241;-83
2023/09/13 04:28:19;;;;;;;0.00;0.00;;;;;;;;;;1739392;28;20206;-84
2023/09/13 04:29:11;;;;;;;0.00;0.00;;;;;;;;;;1734958;28;20215;-84
2023/09/13 04:30:05;;;;;;;0.00;0.00;;;;;;;;;;1737807;28;20200;-84
2023/09/13 04:30:58;;;;;;;0.00;0.00;;;;;;;;;;1737269;28;20230;-84
2023/09/13 04:31:50;;;;;;;0.00;0.00;;;;;;;;;;1735925;28;20211;-83
2023/09/13 04:32:42;;;;;;;0.00;0.00;;;;;;;;;;1739187;28;20257;-83
2023/09/13 04:33:49;;;;;;;0.00;0.00;;;;;;;;;;1734878;28;20218;-83
2023/09/13 04:34:41;;;;;;;0.00;0.00;;;;;;;;;;1734685;28;20195;-83
2023/09/13 04:35:34;;;;;;;0.00;0.00;;;;;;;;;;1736956;28;20231;-83
2023/09/13 04:36:25;;;;;;;0.00;0.00;;;;;;;;;;1740547;28;20203;-84
2023/09/13 04:37:17;;;;;;;0.00;0.00;;;;;;;;;;1737645;28;20218;-82
2023/09/13 04:38:08;;;;;;;0.00;0.00;;;;;;;;;;1743053;28;20200;-83
2023/09/13 04:38:59;;;;;;;0.00;0.00;;;;;;;;;;1739189;28;20212;-82
2023/09/13 04:39:51;;;;;;;0.00;0.00;;;;;;;;;;1730929;28;20254;-82
2023/09/13 04:40:43;;;;;;;0.00;0.00;;;;;;;;;;1730761;28;20246;-82
2023/09/13 04:41:35;;;;;;;0.00;0.00;;;;;;;;;;1733803;28;20265;-82
2023/09/13 04:42:26;;;;;;;0.00;0.00;;;;;;;;;;1736200;28;20262;-82
2023/09/13 04:43:24;;;;;;;0.00;0.00;;;;;;;;;;1741065;28;20494;-82
2023/09/13 04:44:15;;;;;;;0.00;0.00;;;;;;;;;;1737555;28;20206;-82
2023/09/13 04:45:08;;;;;;;0.00;0.00;;;;;;;;;;1738310;28;20199;-83
2023/09/13 04:45:59;;;;;;;0.00;0.00;;;;;;;;;;1736388;28;20247;-82
2023/09/13 04:46:51;;;;;;;0.00;0.00;;;;;;;;;;1736679;28;20241;-82
2023/09/13 04:47:42;;;;;;;0.00;0.00;;;;;;;;;;1738292;28;20601;-82
2023/09/13 04:48:34;;;;;;;0.00;0.00;;;;;;;;;;1736824;28;20214;-82
2023/09/13 04:49:25;;;;;;;0.00;0.00;;;;;;;;;;1736918;28;20298;-82
2023/09/13 04:50:17;;;;;;;0.00;0.00;;;;;;;;;;1735744;28;20261;-82
2023/09/13 04:51:11;;;;;;;0.00;0.00;;;;;;;;;;1736733;28;20200;-82
2023/09/13 04:52:03;;;;;;;0.00;0.00;;;;;;;;;;1736135;28;20230;-82
2023/09/13 04:52:54;;;;;;;0.00;0.00;;;;;;;;;;1742822;28;20214;-82
2023/09/13 04:53:46;;;;;;;0.00;0.00;;;;;;;;;;1737103;28;20200;-82
2023/09/13 04:54:37;;;;;;;0.00;0.00;;;;;;;;;;1736961;28;20705;-82
2023/09/13 04:55:28;;;;;;;0.00;0.00;;;;;;;;;;1736995;28;20246;-82
2023/09/13 04:56:20;;;;;;;0.00;0.00;;;;;;;;;;1737108;28;20203;-82
2023/09/13 04:57:12;;;;;;;0.00;0.00;;;;;;;;;;1732715;28;20219;-82
2023/09/13 04:58:03;;;;;;;0.00;0.00;;;;;;;;;;1737359;28;20199;-82
2023/09/13 04:58:55;;;;;;;0.00;0.00;;;;;;;;;;1735679;28;20211;-83
2023/09/13 04:59:48;;;;;;;0.00;0.00;;;;;;;;;;1737717;28;20277;-83
2023/09/13 05:00:39;;;;;;;0.00;0.00;;;;;;;;;;1738756;28;20293;-83
2023/09/13 05:01:31;;;;;;;0.00;0.00;;;;;;;;;;1739366;28;20278;-81
2023/09/13 05:02:22;;;;;;;0.00;0.00;;;;;;;;;;1739263;28;20321;-81
2023/09/13 05:03:13;;;;;;;0.00;0.00;;;;;;;;;;1736963;28;20508;-81
2023/09/13 05:04:05;;;;;;;0.00;0.00;;;;;;;;;;1739732;28;20362;-81
2023/09/13 05:04:56;;;;;;;0.00;0.00;;;;;;;;;;1739457;28;20250;-80
2023/09/13 05:05:47;;;;;;;0.00;0.00;;;;;;;;;;1738429;28;20238;-81
2023/09/13 05:06:41;;;;;;;0.00;0.00;;;;;;;;;;1737659;28;20200;-81
2023/09/13 05:07:32;;;;;;;0.00;0.00;;;;;;;;;;1738533;28;20215;-81
2023/09/13 05:08:24;;;;;;;0.00;0.00;;;;;;;;;;1736133;28;20207;-80
2023/09/13 05:09:15;;;;;;;0.00;0.00;;;;;;;;;;1736125;28;20258;-80
2023/09/13 05:10:06;;;;;;;0.00;0.00;;;;;;;;;;1737513;28;20211;-80
2023/09/13 05:10:58;;;;;;;0.00;0.00;;;;;;;;;;1736321;28;20239;-80
2023/09/13 05:11:49;;;;;;;0.00;0.00;;;;;;;;;;1737665;28;20657;-80
2023/09/13 05:12:41;;;;;;;0.00;0.00;;;;;;;;;;1736857;28;20199;-80